Time;durP1;ratioP1;P1;durP2;ratioP2;P2;SDS_P1;SDS_P2;PMS_P1;PMS_P2;Temp;Humidity;BMP_temperature;BMP_pressure;BME280_temperature;BME280_humidity;BME280_pressure;Samples;Min_cycle;Max_cycle;Signal;HPM_P1;HPM_P2
2022/01/26 00:06:09;;;;;;;186.95;43.60;;;3.70;99.90;;;;;;5112581;28;20062;-67
2022/01/26 00:08:37;;;;;;;184.32;43.80;;;3.40;99.90;;;;;;5113815;28;20127;-67
2022/01/26 00:11:02;;;;;;;191.82;45.22;;;3.60;99.90;;;;;;5113441;28;20051;-67
2022/01/26 00:13:28;;;;;;;193.05;47.10;;;3.40;99.90;;;;;;5113187;28;20044;-67
2022/01/26 00:15:55;;;;;;;181.32;44.88;;;3.50;99.90;;;;;;5112044;28;20099;-67
2022/01/26 00:18:23;;;;;;;182.13;46.10;;;3.50;99.90;;;;;;5113423;28;20404;-67
2022/01/26 00:20:56;;;;;;;171.20;45.05;;;3.30;99.90;;;;;;5113236;28;20108;-67
2022/01/26 00:29:10;;;;;;;159.05;43.00;;;3.40;99.90;;;;;;5113293;28;20467;-67
2022/01/26 00:40:01;;;;;;;167.77;43.78;;;3.50;99.90;;;;;;5113301;28;20536;-67
2022/01/26 00:42:32;;;;;;;179.05;43.65;;;3.50;99.90;;;;;;5112682;28;20063;-67
2022/01/26 00:44:58;;;;;;;173.43;44.72;;;3.90;99.90;;;;;;5113147;28;20479;-67
2022/01/26 00:47:23;;;;;;;179.25;43.42;;;3.60;99.90;;;;;;5113142;28;20131;-67
2022/01/26 00:49:50;;;;;;;168.45;44.47;;;3.50;99.90;;;;;;5112948;28;20088;-67
2022/01/26 00:52:26;;;;;;;176.73;44.97;;;;;;;;;;5113248;28;20089;-67
2022/01/26 00:54:52;;;;;;;162.13;42.20;;;3.40;99.90;;;;;;5112830;28;20063;-67
2022/01/26 00:57:18;;;;;;;181.63;47.63;;;;;;;;;;5113090;28;20058;-67
2022/01/26 00:59:44;;;;;;;171.93;44.90;;;3.50;99.90;;;;;;5113146;28;20050;-67
2022/01/26 01:02:10;;;;;;;171.68;45.88;;;;;;;;;;5112932;28;20031;-66
2022/01/26 01:04:36;;;;;;;156.45;43.88;;;3.30;99.90;;;;;;5112828;28;20051;-67
2022/01/26 01:07:04;;;;;;;173.02;45.92;;;3.80;99.90;;;;;;5111931;28;20119;-67
2022/01/26 01:09:33;;;;;;;158.15;45.05;;;3.70;99.90;;;;;;5112779;28;20051;-67
2022/01/26 01:12:01;;;;;;;159.02;42.40;;;3.70;99.90;;;;;;5112741;28;20109;-67
2022/01/26 01:14:27;;;;;;;169.93;45.97;;;;;;;;;;5112905;28;20138;-67
2022/01/26 01:16:56;;;;;;;172.40;44.72;;;3.50;99.90;;;;;;5112808;28;20516;-67
2022/01/26 01:22:39;;;;;;;168.60;45.33;;;3.60;99.90;;;;;;5057348;28;20489;-67
2022/01/26 01:30:21;;;;;;;160.63;42.80;;;3.70;99.90;;;;;;5112907;28;20050;-67
2022/01/26 01:33:04;;;;;;;184.02;45.75;;;3.20;99.90;;;;;;5112685;28;20155;-67
2022/01/26 01:35:32;;;;;;;173.82;45.42;;;3.40;99.90;;;;;;5112852;28;20051;-67
2022/01/26 01:38:06;;;;;;;170.98;44.30;;;3.40;99.90;;;;;;5112361;28;20047;-67
2022/01/26 01:40:33;;;;;;;173.00;47.25;;;3.40;99.90;;;;;;5112555;28;20465;-67
2022/01/26 01:42:59;;;;;;;155.45;45.00;;;;;;;;;;5112881;28;20047;-67
2022/01/26 01:45:32;;;;;;;172.27;47.25;;;;;;;;;;5111368;28;20054;-66
2022/01/26 01:47:58;;;;;;;174.18;45.63;;;3.40;99.90;;;;;;5112656;28;20090;-67
2022/01/26 01:50:23;;;;;;;167.65;48.40;;;3.40;99.90;;;;;;5112392;28;20083;-67
2022/01/26 01:52:49;;;;;;;185.98;47.83;;;;;;;;;;5111236;28;20184;-66
2022/01/26 01:55:16;;;;;;;180.43;47.50;;;;;;;;;;5114349;28;20376;-67
2022/01/26 01:57:42;;;;;;;184.05;47.45;;;3.40;99.90;;;;;;5116235;28;20100;-66
2022/01/26 02:00:09;;;;;;;178.98;48.42;;;3.70;99.90;;;;;;5114960;28;20047;-67
2022/01/26 02:02:35;;;;;;;167.65;48.95;;;3.80;99.90;;;;;;5115840;28;20040;-67
2022/01/26 02:05:02;;;;;;;172.35;48.58;;;3.50;99.90;;;;;;5115951;28;20055;-66
2022/01/26 02:07:27;;;;;;;183.68;49.03;;;3.40;99.90;;;;;;5115804;28;20177;-67
2022/01/26 02:09:53;;;;;;;173.95;46.63;;;3.40;99.90;;;;;;5116063;28;20089;-66
2022/01/26 02:12:23;;;;;;;168.32;49.70;;;3.40;99.90;;;;;;5115772;28;20520;-66
2022/01/26 02:14:54;;;;;;;173.52;46.88;;;3.40;99.90;;;;;;5098628;28;20044;-66
2022/01/26 02:55:41;;;;;;;150.88;49.17;;;3.40;99.90;;;;;;5115061;28;20047;-67
2022/01/26 03:01:07;;;;;;;149.93;49.33;;;3.30;99.90;;;;;;5114870;28;20070;-66
2022/01/26 03:03:42;;;;;;;158.30;49.47;;;3.60;99.90;;;;;;5114800;28;20061;-66
2022/01/26 03:06:13;;;;;;;141.25;47.63;;;;;;;;;;5114797;28;20402;-67
2022/01/26 03:08:47;;;;;;;150.63;49.67;;;;;;;;;;5115008;28;20047;-67
2022/01/26 03:11:14;;;;;;;146.75;49.15;;;3.30;99.90;;;;;;5114857;28;20048;-67
2022/01/26 03:13:47;;;;;;;150.75;50.97;;;3.40;99.90;;;;;;5113544;28;20063;-68
2022/01/26 03:16:28;;;;;;;149.43;49.08;;;3.40;99.90;;;;;;5114711;28;20378;-67
2022/01/26 03:19:04;;;;;;;137.57;48.63;;;;;;;;;;5113133;28;20047;-67
2022/01/26 03:21:42;;;;;;;134.97;48.63;;;3.20;99.90;;;;;;5114396;28;20403;-67
2022/01/26 03:34:54;;;;;;;126.97;48.28;;;3.60;99.90;;;;;;5113987;28;20065;-66
2022/01/26 03:37:24;;;;;;;128.57;47.90;;;;;;;;;;5114331;28;20047;-67
2022/01/26 03:39:51;;;;;;;121.68;45.03;;;;;;;;;;5114331;28;20063;-66
2022/01/26 03:42:17;;;;;;;115.90;45.53;;;3.50;99.90;;;;;;5114277;28;20425;-67
2022/01/26 03:44:43;;;;;;;118.80;43.45;;;3.50;99.90;;;;;;5114133;28;20051;-66
2022/01/26 03:47:10;;;;;;;100.75;43.60;;;3.40;99.90;;;;;;5113855;28;20043;-68
2022/01/26 03:49:37;;;;;;;98.13;42.25;;;;;;;;;;5113904;28;20063;-66
2022/01/26 03:52:04;;;;;;;102.53;39.40;;;3.50;99.90;;;;;;5113801;28;20051;-66
2022/01/26 03:54:30;;;;;;;92.68;40.00;;;3.40;99.90;;;;;;5114008;28;20127;-67
2022/01/26 03:56:56;;;;;;;88.32;38.20;;;3.50;99.90;;;;;;5113959;28;20395;-66
2022/01/26 03:59:22;;;;;;;96.15;39.78;;;3.40;99.90;;;;;;5113858;28;20479;-67
2022/01/26 04:01:47;;;;;;;102.40;42.70;;;3.30;99.90;;;;;;5113527;28;20501;-67
2022/01/26 04:04:13;;;;;;;116.38;45.38;;;3.20;99.90;;;;;;5112515;28;20039;-66
2022/01/26 04:06:39;;;;;;;111.18;44.00;;;3.40;99.90;;;;;;5113757;28;20516;-67
2022/01/26 04:09:08;;;;;;;110.68;45.83;;;;;;;;;;5113686;28;20091;-67
2022/01/26 04:11:37;;;;;;;110.53;44.85;;;;;;;;;;5113513;28;20408;-67
2022/01/26 04:14:10;;;;;;;118.65;45.83;;;3.50;99.90;;;;;;5113532;28;20054;-66
2022/01/26 04:16:38;;;;;;;105.63;42.83;;;3.70;99.90;;;;;;5113454;27;20048;-66
2022/01/26 04:19:04;;;;;;;107.45;44.08;;;;;;;;;;5112739;28;20043;-66
2022/01/26 04:27:14;;;;;;;113.75;43.92;;;3.40;99.90;;;;;;5113172;28;20348;-67
2022/01/26 04:29:32;;;;;;;116.30;45.70;;;;;;;;;;5112879;28;20053;-66
2022/01/26 04:31:59;;;;;;;110.22;44.35;;;;;;;;;;5113201;28;20056;-66
2022/01/26 04:34:26;;;;;;;107.03;40.95;;;;;;;;;;5113157;28;20052;-67
2022/01/26 04:39:30;;;;;;;111.25;42.60;;;;;;;;;;5113013;28;20047;-67
2022/01/26 04:42:19;;;;;;;118.50;44.85;;;;;;;;;;5113504;28;20502;-67
2022/01/26 04:44:56;;;;;;;111.55;41.97;;;;;;;;;;5113093;28;20054;-66
2022/01/26 04:47:22;;;;;;;108.07;44.58;;;;;;;;;;5112805;28;20047;-67
2022/01/26 04:49:48;;;;;;;122.90;43.53;;;;;;;;;;5112974;28;20059;-66
2022/01/26 04:52:14;;;;;;;119.55;40.30;;;;;;;;;;5111916;28;20079;-66
2022/01/26 04:54:40;;;;;;;124.28;42.70;;;;;;;;;;5113290;28;20044;-66
2022/01/26 04:57:06;;;;;;;113.40;41.17;;;;;;;;;;5113252;28;20120;-66
2022/01/26 04:59:32;;;;;;;118.55;39.97;;;3.70;99.90;;;;;;5112068;28;20130;-67
2022/01/26 05:01:58;;;;;;;117.05;38.20;;;3.50;99.90;;;;;;5112845;28;20119;-66
2022/01/26 05:04:24;;;;;;;112.38;40.17;;;3.30;99.90;;;;;;5111897;28;20097;-66
2022/01/26 05:06:50;;;;;;;121.03;41.30;;;3.10;99.90;;;;;;5112874;28;20126;-66
2022/01/26 05:09:18;;;;;;;115.05;39.25;;;;;;;;;;5112935;28;20126;-66
2022/01/26 05:11:47;;;;;;;121.97;37.65;;;3.40;99.90;;;;;;5112818;28;20066;-66
2022/01/26 05:14:13;;;;;;;135.20;43.17;;;3.10;99.90;;;;;;5112827;28;20051;-66
2022/01/26 05:16:39;;;;;;;115.88;37.55;;;;;;;;;;5112638;28;20054;-67
2022/01/26 05:19:06;;;;;;;121.65;38.83;;;;;;;;;;5112716;28;20044;-66
2022/01/26 05:21:32;;;;;;;117.45;40.78;;;;;;;;;;5112953;28;20058;-67
2022/01/26 05:23:57;;;;;;;120.15;39.40;;;2.70;99.90;;;;;;5112965;28;20059;-66
2022/01/26 05:26:23;;;;;;;131.07;38.90;;;3.10;99.90;;;;;;5112800;28;20043;-66
2022/01/26 05:28:50;;;;;;;112.60;36.83;;;;;;;;;;5112734;28;20464;-66
2022/01/26 05:31:16;;;;;;;116.03;37.13;;;3.10;99.90;;;;;;5115897;28;20086;-66
2022/01/26 05:33:42;;;;;;;116.90;38.33;;;;;;;;;;5116475;28;20059;-66
2022/01/26 05:36:08;;;;;;;109.88;37.28;;;;;;;;;;5116635;27;20062;-66
2022/01/26 05:38:34;;;;;;;121.32;38.05;;;;;;;;;;5116496;28;20104;-67
2022/01/26 05:41:02;;;;;;;116.85;36.90;;;3.00;99.90;;;;;;5116663;28;20040;-66
2022/01/26 05:43:29;;;;;;;117.95;40.35;;;3.30;99.90;;;;;;5116446;28;20092;-66
2022/01/26 05:45:59;;;;;;;121.85;36.00;;;;;;;;;;5116136;28;20054;-66
2022/01/26 05:48:25;;;;;;;114.32;37.97;;;;;;;;;;5116396;27;20142;-66
2022/01/26 05:50:53;;;;;;;125.40;38.80;;;;;;;;;;5116427;28;20192;-67
2022/01/26 05:53:23;;;;;;;118.03;40.97;;;;;;;;;;5116139;28;20134;-66
2022/01/26 05:55:55;;;;;;;113.20;35.22;;;3.20;99.90;;;;;;5116099;28;20050;-66
2022/01/26 05:58:21;;;;;;;125.50;37.85;;;;;;;;;;5116112;28;20498;-66
2022/01/26 06:00:48;;;;;;;124.03;37.90;;;3.30;99.90;;;;;;5115657;28;20055;-66
2022/01/26 06:03:14;;;;;;;115.07;37.65;;;;;;;;;;5116423;28;20054;-66
2022/01/26 06:05:41;;;;;;;118.18;36.95;;;;;;;;;;5116054;28;20127;-66
2022/01/26 06:08:07;;;;;;;113.28;34.88;;;;;;;;;;5115910;28;20062;-66
2022/01/26 06:10:33;;;;;;;125.68;36.50;;;;;;;;;;5115092;28;20044;-66
2022/01/26 06:12:59;;;;;;;125.93;37.53;;;;;;;;;;5115752;28;20083;-66
2022/01/26 06:15:25;;;;;;;115.60;36.97;;;3.00;99.90;;;;;;5114208;28;20481;-66
2022/01/26 06:17:51;;;;;;;116.47;35.30;;;;;;;;;;5115800;28;20090;-66
2022/01/26 06:20:17;;;;;;;117.70;35.83;;;;;;;;;;5115822;28;20047;-66
2022/01/26 06:22:43;;;;;;;128.98;38.80;;;;;;;;;;5115653;27;20040;-66
2022/01/26 06:25:10;;;;;;;128.45;37.50;;;3.10;99.90;;;;;;5115718;28;20048;-65
2022/01/26 06:27:36;;;;;;;125.22;39.20;;;;;;;;;;5114291;28;20085;-66
2022/01/26 06:30:04;;;;;;;126.65;36.45;;;3.10;99.90;;;;;;5115143;28;20402;-66
2022/01/26 06:32:31;;;;;;;123.68;35.83;;;;;;;;;;5115377;28;20448;-66
2022/01/26 06:34:57;;;;;;;;;;;;;;;;;;5115835;28;20126;-66
2022/01/26 06:37:23;;;;;;;124.95;37.42;;;;;;;;;;5115417;28;20044;-66
2022/01/26 06:39:49;;;;;;;125.10;38.50;;;3.00;99.90;;;;;;5115238;28;20047;-66
2022/01/26 06:42:19;;;;;;;120.40;37.13;;;;;;;;;;5114825;28;20039;-67
2022/01/26 06:45:30;;;;;;;140.35;39.13;;;;;;;;;;5114883;28;20398;-66
2022/01/26 06:50:04;;;;;;;124.35;37.40;;;;;;;;;;5115024;28;20047;-66
2022/01/26 06:52:30;;;;;;;129.68;39.50;;;3.10;99.90;;;;;;5114908;28;20116;-66
2022/01/26 06:54:55;;;;;;;125.07;37.65;;;3.30;99.90;;;;;;5114908;28;20043;-67
2022/01/26 06:57:22;;;;;;;125.93;37.78;;;;;;;;;;5115029;28;20066;-66
2022/01/26 06:59:48;;;;;;;125.55;38.75;;;;;;;;;;5114266;28;20130;-67
2022/01/26 07:02:13;;;;;;;131.75;39.70;;;3.40;99.90;;;;;;5115005;28;20035;-69
2022/01/26 07:04:39;;;;;;;133.10;38.53;;;3.20;99.90;;;;;;5113991;28;20498;-69
2022/01/26 07:07:05;;;;;;;134.73;41.55;;;3.20;99.90;;;;;;5114973;28;20415;-69
2022/01/26 07:09:31;;;;;;;132.90;40.08;;;;;;;;;;5114754;28;20084;-69
2022/01/26 07:11:57;;;;;;;136.93;41.88;;;3.20;99.90;;;;;;5114304;28;20039;-69
2022/01/26 07:19:46;;;;;;;136.32;39.45;;;;;;;;;;5114764;28;20047;-69
2022/01/26 07:19:55;;;;;;;125.00;39.83;;;3.50;99.90;;;;;;5114548;28;20138;-69
2022/01/26 07:22:21;;;;;;;143.77;42.88;;;3.40;99.90;;;;;;5114514;28;20079;-69
2022/01/26 07:24:47;;;;;;;134.88;43.88;;;3.20;99.90;;;;;;5114423;28;20054;-69
2022/01/26 07:27:12;;;;;;;130.80;41.30;;;3.50;99.90;;;;;;5113384;28;20494;-69
2022/01/26 07:29:38;;;;;;;136.20;42.63;;;;;;;;;;5107415;27;20539;-69
2022/01/26 07:32:06;;;;;;;137.40;43.03;;;;;;;;;;5111837;28;20052;-69
2022/01/26 07:34:32;;;;;;;142.00;43.53;;;3.30;99.90;;;;;;5111854;28;20062;-69
2022/01/26 07:37:06;;;;;;;135.00;43.70;;;;;;;;;;5112281;28;20047;-69
2022/01/26 07:39:43;;;;;;;138.73;44.92;;;3.40;99.90;;;;;;5112180;28;20490;-69
2022/01/26 07:42:10;;;;;;;126.55;43.13;;;3.50;99.90;;;;;;5112791;28;20050;-70
2022/01/26 07:44:36;;;;;;;121.68;41.17;;;3.50;99.90;;;;;;5112308;28;20513;-69
2022/01/26 07:47:03;;;;;;;112.72;39.75;;;;;;;;;;5112373;28;20044;-69
2022/01/26 07:49:28;;;;;;;113.43;41.00;;;3.50;99.90;;;;;;5111432;27;20126;-69
2022/01/26 07:51:54;;;;;;;113.35;40.22;;;3.50;99.90;;;;;;5125836;27;20119;-69
2022/01/26 07:54:22;;;;;;;107.38;40.05;;;;;;;;;;5133110;27;20154;-69
2022/01/26 07:56:48;;;;;;;118.93;42.22;;;;;;;;;;5133987;27;20505;-71
2022/01/26 07:59:14;;;;;;;119.93;39.97;;;;;;;;;;5133198;27;20490;-69
2022/01/26 08:01:40;;;;;;;113.90;40.65;;;3.50;99.90;;;;;;5134193;27;20329;-69
2022/01/26 08:04:06;;;;;;;111.55;39.20;;;;;;;;;;5134147;27;20076;-69
2022/01/26 08:06:32;;;;;;;99.00;36.92;;;3.50;99.90;;;;;;5108326;27;20075;-70
2022/01/26 08:08:57;;;;;;;101.80;37.55;;;3.60;99.90;;;;;;5110965;28;20416;-69
2022/01/26 08:11:24;;;;;;;99.75;36.65;;;3.60;99.90;;;;;;5110305;28;20078;-69
2022/01/26 08:13:51;;;;;;;99.18;34.85;;;;;;;;;;5110877;28;20050;-69
2022/01/26 08:16:17;;;;;;;96.53;35.22;;;3.80;99.90;;;;;;5110987;28;20063;-70
2022/01/26 08:18:43;;;;;;;89.43;34.78;;;;;;;;;;5112566;28;20483;-69
2022/01/26 08:21:09;;;;;;;89.05;32.85;;;;;;;;;;5111313;28;20067;-69
2022/01/26 08:23:37;;;;;;;87.78;33.20;;;;;;;;;;5110456;28;20055;-73
2022/01/26 08:26:03;;;;;;;97.60;32.65;;;;;;;;;;5105843;28;20380;-71
2022/01/26 08:28:37;;;;;;;87.15;33.97;;;;;;;;;;5110455;28;20051;-71
2022/01/26 08:31:04;;;;;;;84.38;33.45;;;4.10;99.90;;;;;;5112317;28;20063;-72
2022/01/26 08:33:30;;;;;;;81.60;30.48;;;3.60;99.90;;;;;;5109922;28;20419;-72
2022/01/26 08:35:56;;;;;;;89.93;34.35;;;;;;;;;;5111168;28;20550;-73
2022/01/26 08:38:23;;;;;;;100.40;35.08;;;3.70;99.90;;;;;;5111896;28;20051;-72
2022/01/26 08:40:49;;;;;;;95.43;35.60;;;3.60;99.90;;;;;;5111470;28;20515;-72
2022/01/26 08:43:15;;;;;;;;;;;3.70;99.90;;;;;;5110681;28;20048;-72
2022/01/26 08:45:41;;;;;;;98.60;37.33;;;4.00;99.90;;;;;;5111893;28;20217;-71
2022/01/26 08:48:07;;;;;;;104.47;38.00;;;;;;;;;;5111761;28;20051;-71
2022/01/26 08:50:33;;;;;;;103.25;39.25;;;3.70;99.90;;;;;;5111705;28;20523;-71
2022/01/26 08:52:59;;;;;;;95.18;36.50;;;;;;;;;;5110597;28;20496;-71
2022/01/26 08:55:25;;;;;;;105.18;36.40;;;;;;;;;;5111381;28;20494;-72
2022/01/26 08:57:51;;;;;;;105.32;40.78;;;3.50;99.90;;;;;;5111329;28;20462;-72
2022/01/26 09:00:17;;;;;;;108.82;39.90;;;3.80;99.90;;;;;;5111821;28;20083;-71
2022/01/26 09:02:43;;;;;;;109.47;40.17;;;;;;;;;;5110015;28;20090;-71
2022/01/26 09:05:10;;;;;;;107.85;40.10;;;;;;;;;;5114240;28;20043;-71
2022/01/26 09:07:36;;;;;;;108.35;39.13;;;3.90;99.90;;;;;;5116171;28;20052;-71
2022/01/26 09:10:03;;;;;;;105.18;38.97;;;3.90;99.90;;;;;;5116920;28;20126;-70
2022/01/26 09:12:32;;;;;;;115.25;40.03;;;4.10;99.90;;;;;;5116851;28;20070;-71
2022/01/26 09:15:02;;;;;;;103.32;38.22;;;3.90;99.90;;;;;;5116957;28;20494;-70
2022/01/26 09:17:30;;;;;;;110.47;38.17;;;4.10;99.90;;;;;;5117174;28;20422;-70
2022/01/26 09:19:59;;;;;;;115.22;37.85;;;3.90;99.90;;;;;;5116934;28;20113;-71
2022/01/26 09:22:25;;;;;;;101.72;35.58;;;4.10;99.90;;;;;;5116636;28;20071;-71
2022/01/26 09:24:51;;;;;;;101.53;38.45;;;;;;;;;;5115653;28;20486;-71
2022/01/26 09:27:17;;;;;;;105.30;36.97;;;;;;;;;;5112481;27;20150;-76
2022/01/26 09:29:43;;;;;;;;;;;4.10;99.90;;;;;;5131491;27;20043;-72
2022/01/26 09:32:11;;;;;;;110.97;35.55;;;4.30;99.90;;;;;;5136566;27;19919;-70
2022/01/26 09:34:39;;;;;;;101.20;35.83;;;;;;;;;;5136006;27;20054;-71
2022/01/26 09:37:09;;;;;;;86.15;33.22;;;;;;;;;;5136864;27;20059;-71
2022/01/26 09:39:35;;;;;;;103.63;33.42;;;;;;;;;;5136954;27;20440;-71
2022/01/26 09:42:02;;;;;;;94.05;33.38;;;;;;;;;;5134835;27;20139;-76
2022/01/26 09:44:27;;;;;;;;;;;;;;;;;;5113192;28;20079;-70
2022/01/26 09:46:53;;;;;;;86.75;30.70;;;4.30;99.90;;;;;;5114084;28;20028;-69
2022/01/26 09:49:20;;;;;;;84.20;29.88;;;;;;;;;;5114626;28;20441;-70
2022/01/26 09:51:49;;;;;;;93.25;33.70;;;4.20;99.90;;;;;;5114149;28;20083;-71
2022/01/26 09:54:18;;;;;;;86.53;31.30;;;4.30;99.90;;;;;;5113897;28;20056;-72
2022/01/26 09:56:50;;;;;;;83.60;30.90;;;4.40;99.90;;;;;;5115402;28;20047;-72
2022/01/26 09:59:17;;;;;;;80.20;30.52;;;4.30;99.90;;;;;;5112778;28;20066;-72
2022/01/26 10:01:49;;;;;;;84.22;30.05;;;4.30;99.90;;;;;;5097261;28;20118;-72
2022/01/26 10:04:19;;;;;;;86.70;30.15;;;4.50;99.90;;;;;;5114812;28;20044;-69
2022/01/26 10:06:48;;;;;;;77.03;29.60;;;4.70;99.90;;;;;;5114479;27;20048;-70
2022/01/26 10:17:37;;;;;;;80.20;30.67;;;4.10;99.90;;;;;;5114580;28;20185;-71
2022/01/26 10:20:06;;;;;;;86.65;30.48;;;4.30;99.90;;;;;;5112779;28;20127;-71
2022/01/26 10:22:34;;;;;;;76.18;28.85;;;4.30;99.90;;;;;;5114157;28;20036;-71
2022/01/26 10:25:17;;;;;;;81.43;28.83;;;4.30;99.90;;;;;;5114461;28;20039;-70
2022/01/26 10:27:50;;;;;;;85.25;30.20;;;4.40;99.90;;;;;;5114062;28;20105;-70
2022/01/26 10:30:18;;;;;;;74.18;28.30;;;4.20;99.90;;;;;;5112822;27;20052;-71
2022/01/26 10:32:45;;;;;;;89.45;31.05;;;4.30;99.90;;;;;;5114407;28;20149;-71
2022/01/26 10:35:14;;;;;;;83.95;29.67;;;4.30;99.90;;;;;;5112171;28;20117;-71
2022/01/26 10:37:52;;;;;;;78.10;29.55;;;4.30;99.90;;;;;;5114139;28;20115;-70
2022/01/26 10:40:22;;;;;;;93.25;31.48;;;4.40;99.90;;;;;;5112197;27;20047;-71
2022/01/26 10:43:04;;;;;;;89.68;29.35;;;4.50;99.90;;;;;;5114038;28;20070;-71
2022/01/26 10:45:55;;;;;;;85.32;28.80;;;;;;;;;;5114018;28;20048;-70
2022/01/26 10:48:55;;;;;;;87.03;29.58;;;4.00;99.90;;;;;;5096005;28;20054;-70
2022/01/26 10:54:10;;;;;;;90.72;31.10;;;4.30;99.90;;;;;;5112881;28;20126;-71
2022/01/26 10:56:36;;;;;;;;;;;4.30;99.90;;;;;;5113859;28;20044;-70
2022/01/26 10:59:02;;;;;;;96.80;30.05;;;4.30;99.90;;;;;;5113534;28;19926;-72
2022/01/26 11:01:28;;;;;;;93.97;30.85;;;4.20;99.90;;;;;;5111107;28;20419;-72
2022/01/26 11:03:54;;;;;;;92.38;29.55;;;4.30;99.90;;;;;;5111772;28;20062;-72
2022/01/26 11:06:19;;;;;;;90.45;30.65;;;4.40;99.90;;;;;;5112541;28;20047;-71
2022/01/26 11:08:47;;;;;;;108.28;31.83;;;4.30;99.90;;;;;;5119320;27;20101;-71
2022/01/26 11:11:23;;;;;;;88.50;30.23;;;;;;;;;;5115449;27;20075;-72
2022/01/26 11:13:50;;;;;;;93.22;32.67;;;4.50;99.90;;;;;;5131649;27;20047;-72
2022/01/26 11:16:18;;;;;;;94.50;33.55;;;4.60;99.90;;;;;;5132049;27;20075;-71
2022/01/26 11:18:58;;;;;;;101.07;34.17;;;4.40;99.90;;;;;;5123855;27;20096;-71
2022/01/26 11:21:34;;;;;;;95.68;32.13;;;4.60;99.90;;;;;;5109011;27;20134;-71
2022/01/26 11:24:20;;;;;;;83.25;29.35;;;4.40;99.90;;;;;;5114170;27;20193;-72
2022/01/26 11:26:47;;;;;;;92.20;30.45;;;4.50;99.90;;;;;;5114288;28;20057;-73
2022/01/26 11:29:22;;;;;;;95.18;31.98;;;4.70;99.90;;;;;;5094060;28;20043;-71
2022/01/26 11:31:59;;;;;;;87.78;29.58;;;4.50;99.90;;;;;;5107396;27;20052;-71
2022/01/26 11:34:27;;;;;;;;;;;4.40;99.90;;;;;;5122969;27;20556;-72
2022/01/26 11:36:57;;;;;;;86.85;29.45;;;4.40;99.90;;;;;;5121459;27;19927;-72
2022/01/26 11:45:12;;;;;;;104.22;31.67;;;4.70;99.90;;;;;;5102398;27;20066;-71
2022/01/26 11:47:41;;;;;;;96.22;32.47;;;4.60;99.90;;;;;;5134430;27;20046;-69
2022/01/26 11:50:15;;;;;;;98.53;32.22;;;;;;;;;;5131657;27;20154;-70
2022/01/26 11:52:44;;;;;;;108.57;32.47;;;4.50;99.90;;;;;;5113719;28;20039;-72
2022/01/26 11:55:31;;;;;;;95.63;34.08;;;4.50;99.90;;;;;;5116299;27;20085;-72
2022/01/26 11:58:17;;;;;;;113.28;34.78;;;4.80;99.90;;;;;;5091419;28;20048;-77
2022/01/26 12:00:52;;;;;;;105.70;36.22;;;4.50;99.90;;;;;;5111782;27;20058;-76
2022/01/26 12:03:43;;;;;;;116.22;38.78;;;4.70;99.90;;;;;;5131922;27;20043;-72
2022/01/26 12:06:18;;;;;;;116.18;37.78;;;4.60;99.90;;;;;;5113575;27;20118;-73
2022/01/26 12:08:45;;;;;;;108.07;35.20;;;4.90;99.90;;;;;;5113528;28;20051;-75
2022/01/26 12:11:11;;;;;;;;;;;4.80;99.90;;;;;;5112455;28;20108;-72
2022/01/26 12:13:38;;;;;;;101.22;33.47;;;4.70;99.90;;;;;;5095369;28;20023;-74
2022/01/26 12:16:10;;;;;;;106.68;33.97;;;5.10;99.90;;;;;;5113237;28;20055;-71
2022/01/26 12:43:53;;;;;;;110.55;36.65;;;;;;;;;;5108837;28;20517;-69
2022/01/26 12:46:26;;;;;;;92.25;34.13;;;5.00;99.90;;;;;;5105120;28;20055;-68
2022/01/26 12:49:15;;;;;;;100.47;35.10;;;4.60;99.90;;;;;;5108237;28;20502;-68
2022/01/26 12:51:44;;;;;;;89.38;33.63;;;5.00;99.90;;;;;;5109257;28;20035;-68
2022/01/26 12:54:11;;;;;;;91.53;32.95;;;4.80;99.90;;;;;;5111620;28;20036;-69
2022/01/26 12:56:36;;;;;;;;;;;5.10;99.90;;;;;;5112855;28;20132;-69
2022/01/26 12:59:06;;;;;;;100.70;33.92;;;4.90;99.90;;;;;;5130475;28;20408;-67
2022/01/26 13:01:33;;;;;;;94.95;32.78;;;4.80;99.90;;;;;;5133379;27;20062;-68
2022/01/26 13:04:02;;;;;;;100.47;32.72;;;4.90;99.90;;;;;;5133432;27;20043;-70
2022/01/26 13:06:35;;;;;;;92.28;33.65;;;5.10;99.90;;;;;;5132609;28;20047;-69
2022/01/26 13:09:16;;;;;;;89.47;33.30;;;5.00;99.90;;;;;;5133551;27;20410;-68
2022/01/26 13:11:44;;;;;;;85.00;30.55;;;;;;;;;;5133114;27;20510;-69
2022/01/26 13:14:31;;;;;;;89.25;33.60;;;5.20;99.90;;;;;;5133084;28;20039;-68
2022/01/26 13:17:34;;;;;;;84.03;30.10;;;5.40;99.90;;;;;;5115098;28;20047;-68
2022/01/26 13:20:30;;;;;;;82.97;32.47;;;5.20;99.90;;;;;;5133665;27;20047;-68
2022/01/26 13:31:05;;;;;;;84.95;30.02;;;5.20;99.90;;;;;;5133148;27;20062;-69
2022/01/26 13:36:24;;;;;;;74.93;27.95;;;5.20;99.90;;;;;;5114246;28;20051;-69
2022/01/26 13:51:39;;;;;;;;;;;5.40;99.90;;;;;;5114752;28;20082;-68
2022/01/26 13:59:26;;;;;;;73.05;28.63;;;5.30;99.90;;;;;;5116000;28;20051;-69
2022/01/26 14:01:52;;;;;;;73.57;27.98;;;5.60;99.90;;;;;;5114993;28;20065;-68
2022/01/26 14:04:18;;;;;;;74.72;28.08;;;5.80;99.90;;;;;;5115900;28;20054;-68
2022/01/26 14:06:45;;;;;;;;;;;5.60;99.90;;;;;;5116295;28;20044;-69
2022/01/26 14:09:11;;;;;;;73.87;27.47;;;5.40;99.90;;;;;;5115985;28;20543;-67
2022/01/26 14:11:37;;;;;;;75.28;27.55;;;5.40;99.90;;;;;;5115758;28;20289;-69
2022/01/26 14:14:03;;;;;;;72.57;28.02;;;5.40;99.90;;;;;;5115718;28;20063;-68
2022/01/26 14:16:36;;;;;;;71.65;26.63;;;5.60;99.90;;;;;;5115902;28;20138;-68
2022/01/26 14:24:32;;;;;;;76.50;24.95;;;5.60;99.90;;;;;;5116031;28;20414;-68
2022/01/26 14:27:01;;;;;;;64.95;25.23;;;5.60;99.90;;;;;;5114164;28;20047;-69
2022/01/26 14:40:35;;;;;;;64.78;24.92;;;5.60;99.90;;;;;;5115320;28;20050;-68
2022/01/26 14:54:13;;;;;;;69.35;26.98;;;5.60;99.90;;;;;;5115056;28;20051;-70
2022/01/26 15:34:30;;;;;;;65.22;25.98;;;5.60;99.90;;;;;;5073349;28;20052;-70
2022/01/26 15:43:11;;;;;;;70.57;26.60;;;5.50;99.90;;;;;;5051252;28;20045;-67
2022/01/26 15:51:02;;;;;;;72.93;25.35;;;7.60;99.90;;;;;;5107349;28;20865;-67
2022/01/26 16:04:38;;;;;;;75.13;26.65;;;5.60;99.90;;;;;;5109506;28;20167;-69
2022/01/26 18:17:30;;;;;;;60.60;23.23;;;5.60;99.90;;;;;;5095468;28;20059;-67
2022/01/26 18:49:32;;;;;;;53.10;23.40;;;6.00;99.90;;;;;;5094978;28;20052;-69
2022/01/26 18:51:59;;;;;;;54.97;23.38;;;5.80;99.90;;;;;;5095068;28;20427;-69
2022/01/26 18:54:30;;;;;;;60.72;25.13;;;5.80;99.90;;;;;;5094855;28;20101;-71
2022/01/26 18:56:58;;;;;;;60.70;24.95;;;5.90;99.90;;;;;;5094989;28;20059;-69
2022/01/26 18:59:25;;;;;;;60.33;23.75;;;6.10;99.90;;;;;;5095022;28;20043;-69
2022/01/26 19:01:52;;;;;;;53.97;23.17;;;6.10;99.90;;;;;;5094870;28;20040;-69
2022/01/26 19:04:24;;;;;;;59.15;25.92;;;5.90;99.90;;;;;;5094519;28;20117;-69
2022/01/26 19:06:52;;;;;;;60.03;23.92;;;6.00;99.90;;;;;;5094588;28;20373;-69
2022/01/26 19:09:22;;;;;;;62.58;24.90;;;5.80;99.90;;;;;;5094836;28;20052;-67
2022/01/26 19:11:48;;;;;;;50.53;22.63;;;6.00;99.90;;;;;;5094555;28;20127;-67
2022/01/26 19:14:14;;;;;;;53.08;22.20;;;6.10;99.90;;;;;;5094433;28;20093;-67
2022/01/26 19:16:48;;;;;;;58.55;24.25;;;6.10;99.90;;;;;;5094303;28;20040;-66
2022/01/26 19:27:47;;;;;;;59.75;23.25;;;6.10;99.90;;;;;;5031596;28;20045;-67
2022/01/26 19:51:15;;;;;;;46.72;22.20;;;6.60;99.90;;;;;;5093692;28;20074;-66
2022/01/26 19:53:41;;;;;;;51.90;22.73;;;6.20;99.90;;;;;;5092833;28;20048;-65
2022/01/26 19:56:07;;;;;;;;;;;6.40;99.90;;;;;;5094094;28;20083;-67
2022/01/26 19:58:33;;;;;;;46.72;21.00;;;6.30;99.90;;;;;;5093618;28;20012;-66
2022/01/26 20:00:59;;;;;;;39.90;19.73;;;6.20;99.90;;;;;;5092115;28;20051;-66
2022/01/26 20:03:26;;;;;;;45.95;20.83;;;6.60;99.90;;;;;;5093406;28;20044;-66
2022/01/26 20:05:53;;;;;;;47.33;20.70;;;6.30;99.90;;;;;;5093588;28;20118;-66
2022/01/26 20:08:38;;;;;;;49.05;20.08;;;6.50;99.90;;;;;;5093531;28;20105;-66
2022/01/26 20:11:09;;;;;;;44.88;20.30;;;6.50;99.90;;;;;;5093779;28;20058;-66
2022/01/26 20:13:41;;;;;;;39.53;19.83;;;6.40;99.90;;;;;;5093464;28;20069;-67
2022/01/26 20:16:07;;;;;;;44.22;21.13;;;6.20;99.90;;;;;;5093199;28;20036;-66
2022/01/26 20:18:37;;;;;;;44.75;20.58;;;6.20;99.90;;;;;;5093382;28;20040;-66
2022/01/26 20:21:04;;;;;;;41.15;20.35;;;6.40;99.90;;;;;;5093213;28;20043;-66
2022/01/26 20:23:33;;;;;;;44.30;20.35;;;6.50;99.90;;;;;;5093222;28;20109;-66
2022/01/26 20:26:01;;;;;;;43.88;20.50;;;6.50;99.90;;;;;;5093069;28;20460;-66
2022/01/26 20:28:29;;;;;;;42.80;19.92;;;6.50;99.90;;;;;;5093214;28;20407;-65
2022/01/26 20:30:57;;;;;;;39.15;19.08;;;6.50;99.90;;;;;;5093069;28;20046;-67